Time;durP1;ratioP1;P1;durP2;ratioP2;P2;SDS_P1;SDS_P2;PMS_P1;PMS_P2;Temp;Humidity;BMP_temperature;BMP_pressure;BME280_temperature;BME280_humidity;BME280_pressure;Samples;Min_cycle;Max_cycle;Signal;HPM_P1;HPM_P2
2022/12/17 13:06:51;;;;;;;9.32;6.40;;;;;;;;;;4920528;29;20075;-45
2022/12/17 13:09:16;;;;;;;8.80;6.22;;;;;;;;;;4916104;29;20036;-44
2022/12/17 13:11:52;;;;;;;11.13;7.35;;;;;;;;;;4922724;29;20051;-44
2022/12/17 13:14:25;;;;;;;9.68;6.40;;;;;;;;;;4919385;28;20044;-44
2022/12/17 13:16:58;;;;;;;7.80;5.75;;;;;;;;;;4919132;29;20044;-43
2022/12/17 13:19:32;;;;;;;8.15;6.45;;;;;;;;;;4921594;29;20043;-46
2022/12/17 13:22:13;;;;;;;8.68;7.00;;;;;;;;;;4920385;29;20151;-43
2022/12/17 13:24:39;;;;;;;9.27;6.85;;;;;;;;;;4924616;29;20118;-46
2022/12/17 13:27:33;;;;;;;10.23;7.07;;;;;;;;;;4910489;28;20455;-44
2022/12/17 13:30:10;;;;;;;8.75;7.05;;;;;;;;;;4924977;29;20150;-44
2022/12/17 13:33:17;;;;;;;7.10;6.40;;;;;;;;;;4923704;29;20499;-43
2022/12/17 13:35:51;;;;;;;8.13;6.63;;;;;;;;;;4920903;28;20055;-43
2022/12/17 13:38:52;;;;;;;9.25;7.35;;;;;;;;;;4924797;28;20441;-44
2022/12/17 13:41:21;;;;;;;9.63;7.18;;;;;;;;;;4916828;29;20099;-45
2022/12/17 13:43:52;;;;;;;9.38;7.07;;;;;;;;;;4926026;29;20431;-43
2022/12/17 13:46:24;;;;;;;10.70;6.50;;;;;;;;;;4923445;28;20095;-43
2022/12/17 13:48:58;;;;;;;11.85;6.93;;;;;;;;;;4925214;29;20491;-46
2022/12/17 13:51:29;;;;;;;8.32;7.10;;;;;;;;;;4927096;28;20047;-43
2022/12/17 13:53:57;;;;;;;12.38;6.90;;;;;;;;;;4926786;29;20106;-44
2022/12/17 13:56:31;;;;;;;9.13;6.25;;;;;;;;;;4923596;28;20048;-44
2022/12/17 13:59:01;;;;;;;9.95;7.93;;;;;;;;;;4922936;29;20539;-43
2022/12/17 14:01:27;;;;;;;10.38;7.40;;;;;;;;;;4920256;28;20048;-43
2022/12/17 14:03:54;;;;;;;18.60;10.32;;;;;;;;;;4920451;29;20035;-44
2022/12/17 14:06:22;;;;;;;11.70;8.48;;;;;;;;;;4919117;28;20119;-44
2022/12/17 14:08:50;;;;;;;9.98;7.85;;;;;;;;;;4921272;29;20451;-43
2022/12/17 14:14:00;;;;;;;11.68;8.85;;;;;;;;;;4921323;29;20406;-47
2022/12/17 14:16:26;;;;;;;9.73;7.32;;;;;;;;;;4923719;29;20051;-43
2022/12/17 14:18:54;;;;;;;9.55;7.00;;;;;;;;;;4925031;29;20027;-44
2022/12/17 14:21:21;;;;;;;10.50;7.50;;;;;;;;;;4922840;29;20870;-45
2022/12/17 14:23:48;;;;;;;10.68;6.88;;;;;;;;;;4920374;29;20625;-43
2022/12/17 14:26:13;;;;;;;9.77;8.05;;;;;;;;;;4916007;28;20067;-45
2022/12/17 14:28:51;;;;;;;10.90;8.95;;;;;;;;;;4921422;29;20063;-45
2022/12/17 14:31:23;;;;;;;14.40;8.65;;;;;;;;;;4919063;28;20152;-45
2022/12/17 14:34:12;;;;;;;11.35;9.23;;;;;;;;;;4917957;29;20035;-44
2022/12/17 14:36:40;;;;;;;9.55;7.47;;;;;;;;;;4921585;28;20066;-43
2022/12/17 14:39:21;;;;;;;11.60;8.48;;;;;;;;;;4920243;29;20038;-46
2022/12/17 14:44:31;;;;;;;8.95;7.18;;;;;;;;;;4920486;29;20075;-44
2022/12/17 14:47:24;;;;;;;10.57;8.48;;;;;;;;;;4924265;28;20040;-43
2022/12/17 14:50:06;;;;;;;10.88;8.05;;;;;;;;;;4930695;29;20052;-44
2022/12/17 14:52:34;;;;;;;14.60;8.02;;;;;;;;;;4918067;28;20084;-47
2022/12/17 14:54:59;;;;;;;9.32;7.38;;;;;;;;;;4917910;29;20143;-44
2022/12/17 14:57:25;;;;;;;11.88;8.82;;;;;;;;;;4926945;28;20114;-43
2022/12/17 14:59:51;;;;;;;8.70;7.18;;;;;;;;;;4924995;29;20065;-43
2022/12/17 15:02:27;;;;;;;8.70;6.85;;;;;;;;;;4922257;28;20095;-43
2022/12/17 15:05:00;;;;;;;11.95;7.68;;;;;;;;;;4915932;29;20035;-46
2022/12/17 15:07:29;;;;;;;10.80;7.60;;;;;;;;;;4922070;28;20048;-45
2022/12/17 15:09:55;;;;;;;8.82;6.97;;;;;;;;;;4927005;29;20019;-44
2022/12/17 15:12:22;;;;;;;8.57;7.25;;;;;;;;;;4920209;28;20067;-45
2022/12/17 15:14:47;;;;;;;10.55;7.50;;;;;;;;;;4921341;29;20522;-43
2022/12/17 15:17:13;;;;;;;11.05;8.23;;;;;;;;;;4921483;28;20048;-43
2022/12/17 15:19:39;;;;;;;16.50;11.90;;;;;;;;;;4922277;29;20032;-45
2022/12/17 15:22:04;;;;;;;13.90;10.38;;;;;;;;;;4923751;28;20039;-44
2022/12/17 15:24:30;;;;;;;12.65;10.07;;;;;;;;;;4921119;29;20162;-45
2022/12/17 15:26:55;;;;;;;15.68;11.02;;;;;;;;;;4916242;28;20032;-45
2022/12/17 15:29:23;;;;;;;11.95;9.25;;;;;;;;;;4919937;29;20031;-44
2022/12/17 15:31:48;;;;;;;16.88;9.98;;;;;;;;;;4920654;29;20051;-46
2022/12/17 15:34:14;;;;;;;15.07;9.90;;;;;;;;;;4918034;29;20036;-44
2022/12/17 15:36:39;;;;;;;16.40;10.60;;;;;;;;;;4922122;28;20048;-43
2022/12/17 15:39:05;;;;;;;14.60;11.52;;;;;;;;;;4925614;28;20764;-45
2022/12/17 15:44:15;;;;;;;33.53;18.67;;;;;;;;;;4925364;29;20656;-44
2022/12/17 15:46:40;;;;;;;33.28;19.40;;;;;;;;;;4921139;28;20055;-44
2022/12/17 15:49:06;;;;;;;41.83;28.08;;;;;;;;;;4923356;29;20488;-43
2022/12/17 15:51:31;;;;;;;21.10;15.82;;;;;;;;;;4922435;28;20035;-44
2022/12/17 15:53:56;;;;;;;34.35;23.45;;;;;;;;;;4927566;29;20038;-44
2022/12/17 15:56:27;;;;;;;33.40;24.05;;;;;;;;;;4922048;29;20545;-45
2022/12/17 15:58:57;;;;;;;30.65;23.20;;;;;;;;;;4925295;29;20056;-42
2022/12/17 16:01:22;;;;;;;41.45;29.15;;;;;;;;;;4920378;29;20056;-43
2022/12/17 16:03:48;;;;;;;34.45;24.33;;;;;;;;;;4923092;29;20055;-43
2022/12/17 16:06:13;;;;;;;55.45;29.95;;;;;;;;;;4927046;28;20054;-43
2022/12/17 16:08:39;;;;;;;27.58;16.98;;;;;;;;;;4926992;29;20038;-43
2022/12/17 16:11:09;;;;;;;32.10;20.05;;;;;;;;;;4925350;29;20043;-43
2022/12/17 16:13:36;;;;;;;38.05;22.85;;;;;;;;;;4926114;29;20067;-45
2022/12/17 16:16:02;;;;;;;41.60;28.40;;;;;;;;;;4927828;28;20123;-43
2022/12/17 16:18:28;;;;;;;43.72;29.50;;;;;;;;;;4927458;29;20496;-43
2022/12/17 16:20:53;;;;;;;37.15;25.73;;;;;;;;;;4924354;28;20111;-47
2022/12/17 16:23:19;;;;;;;32.30;22.80;;;;;;;;;;4927998;28;20039;-45
2022/12/17 16:25:55;;;;;;;28.05;19.88;;;;;;;;;;4923321;28;20378;-46
2022/12/17 16:28:21;;;;;;;33.45;23.27;;;;;;;;;;4923153;29;20043;-44
2022/12/17 16:31:07;;;;;;;44.85;30.70;;;;;;;;;;4923675;28;20415;-43
2022/12/17 16:33:35;;;;;;;32.42;24.33;;;;;;;;;;4924772;29;20121;-47
2022/12/17 16:36:02;;;;;;;26.90;17.63;;;;;;;;;;4925621;28;20058;-43
2022/12/17 16:38:28;;;;;;;23.73;15.77;;;;;;;;;;4927471;29;20387;-45
2022/12/17 16:40:55;;;;;;;17.73;13.40;;;;;;;;;;4925804;29;20044;-43
2022/12/17 16:43:21;;;;;;;27.42;18.05;;;;;;;;;;4925617;29;20365;-44
2022/12/17 16:45:49;;;;;;;24.27;18.75;;;;;;;;;;4921113;29;20082;-43
2022/12/17 16:48:16;;;;;;;27.50;18.98;;;;;;;;;;4924262;29;20060;-48
2022/12/17 16:50:43;;;;;;;29.65;19.83;;;;;;;;;;4923478;28;20414;-45
2022/12/17 16:53:08;;;;;;;24.63;17.95;;;;;;;;;;4920307;29;20434;-44
2022/12/17 16:55:40;;;;;;;28.20;16.15;;;;;;;;;;4918741;29;20118;-44
2022/12/17 16:58:05;;;;;;;28.13;17.00;;;;;;;;;;4918662;29;20063;-43
2022/12/17 17:00:33;;;;;;;29.60;18.48;;;;;;;;;;4924669;29;20028;-42
2022/12/17 17:02:58;;;;;;;27.65;18.35;;;;;;;;;;4919317;28;20490;-46
2022/12/17 17:05:24;;;;;;;32.13;17.65;;;;;;;;;;4927213;29;20202;-43
2022/12/17 17:07:49;;;;;;;41.42;23.77;;;;;;;;;;4925675;28;20051;-45
2022/12/17 17:10:14;;;;;;;47.00;25.85;;;;;;;;;;4924635;29;20386;-43
2022/12/17 17:12:40;;;;;;;44.28;23.67;;;;;;;;;;4923227;28;20526;-44
2022/12/17 17:15:06;;;;;;;41.90;25.65;;;;;;;;;;4925513;29;20032;-43
2022/12/17 17:17:31;;;;;;;57.13;33.10;;;;;;;;;;4921460;28;20040;-44
2022/12/17 17:19:56;;;;;;;42.53;26.20;;;;;;;;;;4925148;29;20032;-44
2022/12/17 17:22:22;;;;;;;34.35;23.77;;;;;;;;;;4925778;28;20036;-43
2022/12/17 17:24:47;;;;;;;35.15;21.98;;;;;;;;;;4928059;29;20036;-43
2022/12/17 17:27:13;;;;;;;26.08;17.90;;;;;;;;;;4922481;28;20504;-44
2022/12/17 17:29:38;;;;;;;27.05;18.30;;;;;;;;;;4924248;29;20039;-43
2022/12/17 17:32:04;;;;;;;32.67;20.23;;;;;;;;;;4922192;28;20434;-43
2022/12/17 17:34:29;;;;;;;27.60;17.30;;;;;;;;;;4922797;29;20367;-45
2022/12/17 17:36:54;;;;;;;25.88;16.13;;;;;;;;;;4922339;28;20047;-44
2022/12/17 17:39:20;;;;;;;45.53;28.73;;;;;;;;;;4916346;29;20105;-44
2022/12/17 17:41:45;;;;;;;59.92;34.42;;;;;;;;;;4921957;28;20585;-45
2022/12/17 17:44:12;;;;;;;39.35;24.88;;;;;;;;;;4921104;29;20131;-44
2022/12/17 17:46:38;;;;;;;35.03;23.77;;;;;;;;;;4921493;28;20047;-43
2022/12/17 17:49:05;;;;;;;41.03;25.58;;;;;;;;;;4926559;29;20119;-48
2022/12/17 17:51:33;;;;;;;40.05;23.48;;;;;;;;;;4921514;28;20044;-42
2022/12/17 17:54:00;;;;;;;46.45;23.70;;;;;;;;;;4928320;29;20035;-43
2022/12/17 17:56:33;;;;;;;37.83;22.67;;;;;;;;;;4925309;28;20051;-44
2022/12/17 17:59:08;;;;;;;30.52;18.88;;;;;;;;;;4927271;29;20107;-42
2022/12/17 18:01:37;;;;;;;28.27;18.38;;;;;;;;;;4922924;29;20828;-43
2022/12/17 18:04:04;;;;;;;23.83;16.77;;;;;;;;;;4922978;29;20039;-43
2022/12/17 18:06:31;;;;;;;17.90;12.20;;;;;;;;;;4924921;29;20380;-45
2022/12/17 18:08:58;;;;;;;18.13;11.07;;;;;;;;;;4918549;29;20036;-46
2022/12/17 18:11:26;;;;;;;18.63;11.82;;;;;;;;;;4923839;29;20538;-43
2022/12/17 18:13:54;;;;;;;17.10;12.13;;;;;;;;;;4920541;29;20149;-44
2022/12/17 18:16:30;;;;;;;14.05;10.00;;;;;;;;;;4916845;29;20067;-45
2022/12/17 18:19:01;;;;;;;18.13;11.65;;;;;;;;;;4911633;29;20058;-45
2022/12/17 18:21:28;;;;;;;16.02;11.82;;;;;;;;;;4915544;28;20044;-46
2022/12/17 18:24:01;;;;;;;15.77;11.50;;;;;;;;;;4917578;29;20406;-44
2022/12/17 18:26:30;;;;;;;20.75;12.30;;;;;;;;;;4919650;28;20061;-42
2022/12/17 18:28:57;;;;;;;18.38;12.18;;;;;;;;;;4918941;29;20075;-43
2022/12/17 18:31:24;;;;;;;22.17;12.73;;;;;;;;;;4919607;28;20115;-45
2022/12/17 18:33:56;;;;;;;21.38;13.85;;;;;;;;;;4920857;28;20040;-44
2022/12/17 18:36:27;;;;;;;18.95;12.75;;;;;;;;;;4917337;28;20046;-43
2022/12/17 18:38:57;;;;;;;32.88;20.50;;;;;;;;;;4921983;29;20055;-45
2022/12/17 18:44:08;;;;;;;28.25;18.58;;;;;;;;;;4920103;29;20116;-50
2022/12/17 18:46:34;;;;;;;27.75;17.70;;;;;;;;;;4919873;28;20044;-43
2022/12/17 18:49:03;;;;;;;30.88;19.75;;;;;;;;;;4919253;29;20087;-45
2022/12/17 18:51:28;;;;;;;27.95;19.75;;;;;;;;;;4917478;28;20095;-43
2022/12/17 18:53:59;;;;;;;28.55;19.25;;;;;;;;;;4917284;29;20633;-43
2022/12/17 18:56:25;;;;;;;36.00;23.50;;;;;;;;;;4918362;28;20044;-43
2022/12/17 18:58:52;;;;;;;40.50;25.85;;;;;;;;;;4923111;29;20463;-43
2022/12/17 19:01:23;;;;;;;38.70;25.08;;;;;;;;;;4919892;28;20110;-43
2022/12/17 19:03:49;;;;;;;33.35;22.55;;;;;;;;;;4922463;29;20038;-44
2022/12/17 19:06:15;;;;;;;33.67;23.10;;;;;;;;;;4925438;28;20043;-43
2022/12/17 19:08:41;;;;;;;33.92;22.05;;;;;;;;;;4925128;29;20032;-44
2022/12/17 19:11:08;;;;;;;38.97;23.08;;;;;;;;;;4922258;29;20047;-43
2022/12/17 19:13:34;;;;;;;30.75;21.58;;;;;;;;;;4922068;29;20114;-45
2022/12/17 19:16:14;;;;;;;38.05;25.00;;;;;;;;;;4922621;28;20135;-44
2022/12/17 19:18:39;;;;;;;35.55;23.00;;;;;;;;;;4922711;29;20032;-42
2022/12/17 19:21:07;;;;;;;35.60;22.27;;;;;;;;;;4919424;28;20083;-45
2022/12/17 19:23:33;;;;;;;36.80;21.40;;;;;;;;;;4927322;29;20035;-43
2022/12/17 19:26:11;;;;;;;33.33;22.42;;;;;;;;;;4923183;28;20035;-43
2022/12/17 19:28:39;;;;;;;38.95;24.98;;;;;;;;;;4925866;29;20031;-42
2022/12/17 19:31:05;;;;;;;31.30;21.92;;;;;;;;;;4927990;28;20058;-43
2022/12/17 19:33:30;;;;;;;29.95;19.98;;;;;;;;;;4919894;29;20438;-43
2022/12/17 19:36:04;;;;;;;30.08;20.50;;;;;;;;;;4926607;28;20040;-43
2022/12/17 19:38:30;;;;;;;29.42;21.20;;;;;;;;;;4906972;29;20054;-45
2022/12/17 19:40:55;;;;;;;34.67;23.48;;;;;;;;;;4908781;29;20402;-43
2022/12/17 19:43:21;;;;;;;40.28;26.88;;;;;;;;;;4922910;29;20032;-43
2022/12/17 19:45:46;;;;;;;35.05;23.70;;;;;;;;;;4922907;28;20040;-42
2022/12/17 19:48:15;;;;;;;34.92;22.10;;;;;;;;;;4921835;29;20074;-43
2022/12/17 19:50:41;;;;;;;24.52;17.58;;;;;;;;;;4917766;29;20052;-43
2022/12/17 19:53:06;;;;;;;32.55;21.80;;;;;;;;;;4918248;29;20052;-42
2022/12/17 19:55:31;;;;;;;49.55;28.08;;;;;;;;;;4924909;29;20052;-43
2022/12/17 19:57:57;;;;;;;55.38;36.53;;;;;;;;;;4920891;28;20043;-43
2022/12/17 20:00:22;;;;;;;64.18;38.90;;;;;;;;;;4923219;29;20031;-44
2022/12/17 20:02:47;;;;;;;60.50;37.78;;;;;;;;;;4921819;28;20036;-45
2022/12/17 20:05:13;;;;;;;56.15;37.50;;;;;;;;;;4916482;29;20095;-45
2022/12/17 20:07:39;;;;;;;69.20;42.50;;;;;;;;;;4924537;28;20035;-45
2022/12/17 20:10:05;;;;;;;75.32;44.53;;;;;;;;;;4923952;29;20051;-42
2022/12/17 20:12:30;;;;;;;83.85;50.60;;;;;;;;;;4923556;28;20046;-43
2022/12/17 20:14:55;;;;;;;79.28;45.85;;;;;;;;;;4921768;29;20040;-42
2022/12/17 20:17:21;;;;;;;59.03;35.80;;;;;;;;;;4922772;28;20044;-44
2022/12/17 20:19:48;;;;;;;71.65;43.00;;;;;;;;;;4924325;29;20039;-42
2022/12/17 20:22:13;;;;;;;62.60;38.80;;;;;;;;;;4919203;29;20049;-43
2022/12/17 20:24:39;;;;;;;55.83;34.25;;;;;;;;;;4925971;29;20049;-44
2022/12/17 20:27:04;;;;;;;38.00;26.55;;;;;;;;;;4922479;29;20091;-42
2022/12/17 20:29:30;;;;;;;30.38;20.20;;;;;;;;;;4921402;29;20494;-45
2022/12/17 20:31:56;;;;;;;37.13;18.98;;;;;;;;;;4922000;29;20039;-43
2022/12/17 20:34:22;;;;;;;25.58;18.40;;;;;;;;;;4923144;29;20110;-42
2022/12/17 20:36:48;;;;;;;33.03;22.40;;;;;;;;;;4922266;28;20061;-42
2022/12/17 20:39:14;;;;;;;38.22;23.50;;;;;;;;;;4919854;29;20032;-43
2022/12/17 20:41:40;;;;;;;40.92;27.80;;;;;;;;;;4919033;28;20039;-44
2022/12/17 20:44:10;;;;;;;38.97;26.73;;;;;;;;;;4921138;29;20071;-43
2022/12/17 20:46:36;;;;;;;52.95;32.67;;;;;;;;;;4924333;28;20039;-44
2022/12/17 20:49:03;;;;;;;48.00;30.92;;;;;;;;;;4924596;29;20048;-42
2022/12/17 20:51:29;;;;;;;45.63;27.70;;;;;;;;;;4927105;28;20039;-42
2022/12/17 20:53:57;;;;;;;44.17;27.35;;;;;;;;;;4928033;29;20486;-43
2022/12/17 20:56:26;;;;;;;40.63;25.50;;;;;;;;;;4927351;28;20653;-45
2022/12/17 20:58:57;;;;;;;40.38;24.30;;;;;;;;;;4931716;29;20043;-42
2022/12/17 21:01:25;;;;;;;37.35;23.83;;;;;;;;;;4922454;28;20130;-47
2022/12/17 21:03:52;;;;;;;35.03;21.75;;;;;;;;;;4921239;29;20040;-42
2022/12/17 21:06:27;;;;;;;35.30;23.52;;;;;;;;;;4922721;29;20076;-42
2022/12/17 21:08:54;;;;;;;43.60;26.58;;;;;;;;;;4922613;29;20333;-40
2022/12/17 21:11:22;;;;;;;38.35;25.00;;;;;;;;;;4924082;28;20499;-45
2022/12/17 21:13:47;;;;;;;38.10;25.00;;;;;;;;;;4923475;29;20054;-42
2022/12/17 21:16:17;;;;;;;37.67;24.67;;;;;;;;;;4923121;28;20119;-43
2022/12/17 21:18:43;;;;;;;34.70;22.40;;;;;;;;;;4921158;29;20027;-43
2022/12/17 21:21:15;;;;;;;33.83;21.75;;;;;;;;;;4922400;29;20051;-43
2022/12/17 21:23:41;;;;;;;32.97;21.35;;;;;;;;;;4922584;29;20126;-42
2022/12/17 21:26:13;;;;;;;38.63;23.42;;;;;;;;;;4925415;29;20127;-43
2022/12/17 21:28:40;;;;;;;41.37;24.70;;;;;;;;;;4922405;29;20035;-45
2022/12/17 21:31:17;;;;;;;41.28;25.98;;;;;;;;;;4919741;28;20520;-43
2022/12/17 21:33:42;;;;;;;40.90;25.08;;;;;;;;;;4924567;29;20028;-44
2022/12/17 21:36:08;;;;;;;39.58;25.52;;;;;;;;;;4922223;28;20198;-42
2022/12/17 21:38:33;;;;;;;43.40;26.88;;;;;;;;;;4924038;29;20051;-42
2022/12/17 21:41:14;;;;;;;46.10;28.48;;;;;;;;;;4921487;29;20084;-45
2022/12/17 21:43:40;;;;;;;38.92;26.00;;;;;;;;;;4924375;29;20068;-45
2022/12/17 21:46:06;;;;;;;37.38;24.92;;;;;;;;;;4924061;28;20099;-44
2022/12/17 21:48:32;;;;;;;39.53;24.63;;;;;;;;;;4921921;29;21169;-44
2022/12/17 21:50:57;;;;;;;33.15;22.45;;;;;;;;;;4926090;28;20035;-44
2022/12/17 21:53:23;;;;;;;36.25;24.05;;;;;;;;;;4923644;29;20038;-42
2022/12/17 21:55:48;;;;;;;38.55;23.38;;;;;;;;;;4925579;28;20031;-44
2022/12/17 21:58:14;;;;;;;39.35;22.95;;;;;;;;;;4925932;29;20031;-42
2022/12/17 22:00:40;;;;;;;54.65;35.50;;;;;;;;;;4931237;28;20027;-36
2022/12/17 22:03:06;;;;;;;47.78;32.17;;;;;;;;;;4926930;29;20030;-42
2022/12/17 22:05:31;;;;;;;51.50;34.17;;;;;;;;;;4928158;29;20028;-42
2022/12/17 22:07:57;;;;;;;47.42;32.20;;;;;;;;;;4923247;28;20040;-45
2022/12/17 22:10:23;;;;;;;54.90;33.55;;;;;;;;;;4921222;29;20071;-44
2022/12/17 22:15:33;;;;;;;44.08;32.03;;;;;;;;;;4927355;29;20459;-40
2022/12/17 22:17:58;;;;;;;45.25;30.38;;;;;;;;;;4923500;29;20170;-43
2022/12/17 22:20:23;;;;;;;46.33;29.83;;;;;;;;;;4924927;29;20023;-44
2022/12/17 22:22:49;;;;;;;41.72;27.83;;;;;;;;;;4926627;28;20701;-42
2022/12/17 22:25:15;;;;;;;48.50;28.92;;;;;;;;;;4926143;29;20095;-44
2022/12/17 22:27:40;;;;;;;36.08;24.27;;;;;;;;;;4928491;28;20130;-44
2022/12/17 22:33:03;;;;;;;34.15;21.38;;;;;;;;;;4932325;28;20055;-43
2022/12/17 22:35:35;;;;;;;32.50;20.58;;;;;;;;;;4928357;29;20486;-44
2022/12/17 22:38:03;;;;;;;32.88;21.58;;;;;;;;;;4931174;29;20043;-42
2022/12/17 22:40:30;;;;;;;36.13;22.10;;;;;;;;;;4927493;29;20422;-42
2022/12/17 22:45:40;;;;;;;28.80;19.13;;;;;;;;;;4928425;28;20046;-40
2022/12/17 22:48:07;;;;;;;27.17;17.60;;;;;;;;;;4931047;29;20046;-44
2022/12/17 22:50:33;;;;;;;27.02;17.83;;;;;;;;;;4929063;29;20051;-42
2022/12/17 22:52:58;;;;;;;31.55;18.45;;;;;;;;;;4928131;29;20051;-43
2022/12/17 22:55:23;;;;;;;40.30;22.45;;;;;;;;;;4926848;29;20028;-42
2022/12/17 22:57:49;;;;;;;33.17;20.75;;;;;;;;;;4928637;28;20058;-43
2022/12/17 23:00:19;;;;;;;29.02;19.77;;;;;;;;;;4926355;29;20024;-44
2022/12/17 23:02:44;;;;;;;30.35;19.15;;;;;;;;;;4925704;28;20074;-44
2022/12/17 23:05:10;;;;;;;25.73;17.98;;;;;;;;;;4928699;29;20051;-42
2022/12/17 23:07:35;;;;;;;29.73;16.83;;;;;;;;;;4928289;28;20032;-42
2022/12/17 23:10:01;;;;;;;24.63;15.90;;;;;;;;;;4924945;29;20788;-42
2022/12/17 23:15:10;;;;;;;17.60;12.93;;;;;;;;;;4929324;29;20608;-42
2022/12/17 23:17:35;;;;;;;17.80;11.85;;;;;;;;;;4927100;28;20044;-44
2022/12/17 23:20:00;;;;;;;17.85;11.30;;;;;;;;;;4929832;29;20482;-42
2022/12/17 23:22:26;;;;;;;16.52;11.25;;;;;;;;;;4927672;28;20138;-42
2022/12/17 23:24:51;;;;;;;19.58;11.57;;;;;;;;;;4926560;29;20031;-41
2022/12/17 23:27:17;;;;;;;18.20;12.48;;;;;;;;;;4927567;28;20054;-44
2022/12/17 23:29:42;;;;;;;21.17;13.02;;;;;;;;;;4928652;29;20046;-41
2022/12/17 23:32:07;;;;;;;23.40;17.33;;;;;;;;;;4928692;28;20381;-43
2022/12/17 23:34:33;;;;;;;36.17;23.42;;;;;;;;;;4927504;29;20054;-42
2022/12/17 23:36:58;;;;;;;38.38;24.05;;;;;;;;;;4929106;28;20044;-48
2022/12/17 23:39:23;;;;;;;38.80;25.25;;;;;;;;;;4928763;29;20107;-42
2022/12/17 23:41:49;;;;;;;40.70;26.17;;;;;;;;;;4924976;28;20135;-44
2022/12/17 23:44:14;;;;;;;36.67;23.77;;;;;;;;;;4929532;29;20111;-43
2022/12/17 23:46:39;;;;;;;38.97;24.35;;;;;;;;;;4927407;29;20043;-41
2022/12/17 23:49:05;;;;;;;40.80;22.65;;;;;;;;;;4926321;29;20047;-43
2022/12/17 23:51:31;;;;;;;35.92;22.65;;;;;;;;;;4926175;28;20040;-45
2022/12/17 23:53:58;;;;;;;35.38;22.77;;;;;;;;;;4927110;29;20035;-42
2022/12/17 23:56:25;;;;;;;33.20;21.35;;;;;;;;;;4927382;28;20624;-44
2022/12/17 23:58:55;;;;;;;37.55;21.10;;;;;;;;;;4926416;29;20107;-44
